Time;durP1;ratioP1;P1;durP2;ratioP2;P2;SDS_P1;SDS_P2;PMS_P1;PMS_P2;Temp;Humidity;BMP_temperature;BMP_pressure;BME280_temperature;BME280_humidity;BME280_pressure;Samples;Min_cycle;Max_cycle;Signal;HPM_P1;HPM_P2
2023/02/05 00:02:07;;;;;;;;;;;;;;;-1.39;100.00;100528.45;68003;1275;1016541;-60
2023/02/05 00:05:10;;;;;;;;;;;;;;;-1.18;100.00;100533.04;67990;1275;1016366;-60
2023/02/05 00:08:12;;;;;;;;;;;;;;;-1.00;100.00;100532.92;67951;1275;1016489;-60
2023/02/05 00:11:14;;;;;;;;;;;;;;;-0.97;100.00;100529.54;67833;1275;1162832;-60
2023/02/05 00:14:17;;;;;;;;;;;;;;;-1.05;100.00;100534.08;68001;1275;1016267;-60
2023/02/05 00:17:19;;;;;;;;;;;;;;;-1.19;100.00;100531.30;67977;1275;1016301;-60
2023/02/05 00:20:22;;;;;;;;;;;;;;;-1.28;100.00;100536.69;67982;1275;1016442;-60
2023/02/05 00:23:24;;;;;;;;;;;;;;;-1.28;100.00;100538.39;67959;1275;1016387;-60
2023/02/05 00:26:27;;;;;;;;;;;;;;;-1.28;100.00;100542.52;67980;1275;1016212;-60
2023/02/05 00:29:29;;;;;;;;;;;;;;;-1.47;100.00;100543.42;67974;1275;1016400;-60
2023/02/05 00:32:32;;;;;;;;;;;;;;;-1.55;100.00;100545.19;68003;1275;1016410;-60
2023/02/05 00:35:34;;;;;;;;;;;;;;;-1.57;100.00;100540.68;67945;1275;1016311;-60
2023/02/05 00:38:37;;;;;;;;;;;;;;;-1.59;100.00;100538.44;67956;1275;1016364;-60
2023/02/05 00:41:39;;;;;;;;;;;;;;;-1.63;100.00;100535.97;67995;1275;1016277;-60
2023/02/05 00:44:42;;;;;;;;;;;;;;;-1.67;100.00;100537.61;68002;1275;1016301;-60
2023/02/05 00:47:44;;;;;;;;;;;;;;;-1.73;100.00;100537.69;67933;1275;1016495;-60
2023/02/05 00:50:47;;;;;;;;;;;;;;;-1.72;100.00;100539.44;67964;1275;1016373;-60
2023/02/05 00:53:49;;;;;;;;;;;;;;;-1.76;100.00;100538.86;67970;1275;1016410;-60
2023/02/05 00:56:51;;;;;;;;;;;;;;;-1.79;100.00;100541.02;67973;1275;1016269;-60
2023/02/05 00:59:54;;;;;;;;;;;;;;;-1.80;100.00;100537.92;68006;1275;1016494;-60
2023/02/05 01:02:56;;;;;;;;;;;;;;;-1.81;100.00;100538.42;68015;1275;1017940;-60
2023/02/05 01:06:01;;;;;;;;;;;;;;;-1.83;100.00;100540.77;67950;1275;1016399;-60
2023/02/05 01:09:04;;;;;;;;;;;;;;;-1.90;100.00;100539.63;68016;1275;1015766;-60
2023/02/05 01:12:06;;;;;;;;;;;;;;;-2.03;100.00;100543.17;67993;1275;1016490;-60
2023/02/05 01:15:08;;;;;;;;;;;;;;;-2.04;100.00;100543.69;67968;1275;1016096;-60
2023/02/05 01:18:11;;;;;;;;;;;;;;;-2.12;100.00;100547.65;67955;1275;1018926;-60
2023/02/05 01:21:13;;;;;;;;;;;;;;;-2.21;100.00;100552.80;67980;1275;1016403;-60
2023/02/05 01:24:16;;;;;;;;;;;;;;;-2.19;100.00;100555.06;68002;1275;1016316;-60
2023/02/05 01:27:18;;;;;;;;;;;;;;;-2.30;100.00;100552.64;68007;1275;1016324;-60
2023/02/05 01:30:21;;;;;;;;;;;;;;;-2.30;100.00;100558.80;67965;1275;1016398;-60
2023/02/05 01:33:23;;;;;;;;;;;;;;;-2.28;100.00;100563.64;67929;1275;1016443;-60
2023/02/05 01:36:25;;;;;;;;;;;;;;;-2.22;100.00;100563.58;67993;1275;1016221;-60
2023/02/05 01:39:28;;;;;;;;;;;;;;;-2.20;100.00;100564.81;67994;1275;1016539;-60
2023/02/05 01:42:30;;;;;;;;;;;;;;;-2.18;100.00;100564.68;67991;1275;1016429;-60
2023/02/05 01:45:33;;;;;;;;;;;;;;;-2.06;100.00;100568.34;67921;1275;1015960;-60
2023/02/05 01:48:35;;;;;;;;;;;;;;;-1.98;100.00;100571.73;67943;1275;1016577;-60
2023/02/05 01:51:38;;;;;;;;;;;;;;;-1.93;100.00;100569.42;67996;1275;1016422;-60
2023/02/05 01:54:40;;;;;;;;;;;;;;;-1.86;100.00;100569.05;67999;1275;1016386;-60
2023/02/05 01:57:42;;;;;;;;;;;;;;;-1.76;100.00;100564.73;67991;1275;1016301;-60
2023/02/05 02:00:45;;;;;;;;;;;;;;;-1.71;100.00;100569.30;67945;1275;1016439;-60
2023/02/05 02:03:47;;;;;;;;;;;;;;;-1.70;100.00;100571.02;67940;1275;1016548;-60
2023/02/05 02:06:50;;;;;;;;;;;;;;;-1.69;100.00;100569.84;67994;1275;1016629;-60
2023/02/05 02:09:52;;;;;;;;;;;;;;;-1.83;100.00;100574.58;67980;1275;1016241;-60
2023/02/05 02:12:54;;;;;;;;;;;;;;;-1.81;100.00;100574.27;68008;1275;1016717;-60
2023/02/05 02:15:57;;;;;;;;;;;;;;;-1.78;100.00;100576.20;67942;1275;1016297;-60
2023/02/05 02:18:59;;;;;;;;;;;;;;;-1.89;100.00;100583.20;67965;1275;1016477;-60
2023/02/05 02:22:02;;;;;;;;;;;;;;;-1.87;100.00;100586.15;67985;1275;1016071;-60
2023/02/05 02:25:04;;;;;;;;;;;;;;;-1.81;100.00;100586.61;67988;1275;1018140;-60
2023/02/05 02:28:07;;;;;;;;;;;;;;;-1.87;100.00;100588.73;67972;1275;1016242;-60
2023/02/05 02:31:09;;;;;;;;;;;;;;;-1.93;100.00;100597.38;67960;1275;1016449;-60
2023/02/05 02:34:11;;;;;;;;;;;;;;;-1.97;100.00;100605.88;67946;1275;1017065;-60
2023/02/05 02:37:14;;;;;;;;;;;;;;;-2.04;100.00;100608.15;67936;1275;1015885;-60
2023/02/05 02:40:16;;;;;;;;;;;;;;;-2.16;100.00;100600.55;68022;1275;1016029;-60
2023/02/05 02:43:19;;;;;;;;;;;;;;;-2.17;100.00;100597.79;67969;1275;1017496;-60
2023/02/05 02:46:21;;;;;;;;;;;;;;;-2.07;100.00;100602.08;67959;1275;1016307;-60
2023/02/05 02:49:24;;;;;;;;;;;;;;;-2.18;100.00;100597.77;67951;1275;1016499;-60
2023/02/05 02:52:26;;;;;;;;;;;;;;;-2.11;100.00;100596.35;67993;1275;1016462;-60
2023/02/05 02:55:29;;;;;;;;;;;;;;;-2.13;100.00;100592.88;68008;1275;1016394;-60
2023/02/05 02:58:31;;;;;;;;;;;;;;;-2.18;100.00;100593.48;67960;1275;1016440;-60
2023/02/05 03:01:33;;;;;;;;;;;;;;;-2.19;100.00;100599.13;67959;1275;1016502;-61
2023/02/05 03:04:36;;;;;;;;;;;;;;;-2.16;100.00;100593.88;67999;1275;1016672;-60
2023/02/05 03:07:38;;;;;;;;;;;;;;;-2.17;100.00;100595.91;68025;1275;1016453;-60
2023/02/05 03:10:41;;;;;;;;;;;;;;;-2.14;100.00;100598.86;68037;1275;1016232;-60
2023/02/05 03:13:43;;;;;;;;;;;;;;;-2.15;100.00;100595.76;67989;1275;1016463;-60
2023/02/05 03:16:46;;;;;;;;;;;;;;;-2.32;100.00;100594.59;67990;1275;1016938;-60
2023/02/05 03:19:48;;;;;;;;;;;;;;;-2.46;100.00;100600.48;68035;1275;1016381;-60
2023/02/05 03:22:51;;;;;;;;;;;;;;;-2.53;100.00;100604.27;68013;1275;1016543;-60
2023/02/05 03:25:53;;;;;;;;;;;;;;;-2.66;100.00;100602.64;68050;1275;1016361;-60
2023/02/05 03:28:55;;;;;;;;;;;;;;;-2.78;100.00;100599.46;67972;1275;1016486;-60
2023/02/05 03:31:58;;;;;;;;;;;;;;;-2.87;100.00;100597.89;68009;1275;1016024;-60
2023/02/05 03:35:00;;;;;;;;;;;;;;;-2.91;100.00;100596.77;67985;1275;1016239;-60
2023/02/05 03:38:02;;;;;;;;;;;;;;;-2.90;100.00;100600.05;68007;1275;1016435;-60
2023/02/05 03:41:05;;;;;;;;;;;;;;;-2.93;100.00;100595.71;68043;1275;1016504;-60
2023/02/05 03:44:07;;;;;;;;;;;;;;;-2.98;100.00;100587.22;68060;1275;1016313;-60
2023/02/05 03:47:10;;;;;;;;;;;;;;;-2.93;100.00;100585.95;67955;1275;1016381;-60
2023/02/05 03:50:12;;;;;;;;;;;;;;;-2.87;100.00;100580.27;67963;1275;1019500;-59
2023/02/05 03:53:14;;;;;;;;;;;;;;;-2.84;100.00;100580.85;67970;1275;1018239;-60
2023/02/05 03:56:17;;;;;;;;;;;;;;;-2.80;100.00;100586.77;68045;1275;1016138;-61
2023/02/05 03:59:19;;;;;;;;;;;;;;;-2.67;100.00;100588.91;68021;1275;1016515;-60
2023/02/05 04:02:22;;;;;;;;;;;;;;;-2.55;100.00;100590.69;67978;1275;1016054;-60
2023/02/05 04:05:24;;;;;;;;;;;;;;;-2.53;100.00;100591.09;67970;1275;1015965;-60
2023/02/05 04:08:26;;;;;;;;;;;;;;;-2.69;100.00;100592.29;68034;1275;1018807;-60
2023/02/05 04:11:30;;;;;;;;;;;;;;;-2.71;100.00;100596.35;68025;1275;1016222;-60
2023/02/05 04:14:32;;;;;;;;;;;;;;;-2.68;100.00;100601.38;67979;1275;1017665;-60
2023/02/05 04:17:35;;;;;;;;;;;;;;;-2.71;100.00;100600.13;68001;1275;1016845;-61
2023/02/05 04:20:37;;;;;;;;;;;;;;;-2.68;100.00;100602.23;68018;1275;1017979;-60
2023/02/05 04:23:40;;;;;;;;;;;;;;;-2.68;100.00;100604.13;68046;1275;1016487;-61
2023/02/05 04:26:42;;;;;;;;;;;;;;;-2.61;100.00;100609.09;68012;1275;1015670;-60
2023/02/05 04:29:44;;;;;;;;;;;;;;;-2.51;100.00;100614.24;68004;1275;1018608;-60
2023/02/05 04:32:47;;;;;;;;;;;;;;;-2.51;100.00;100617.86;67979;1275;1016195;-60
2023/02/05 04:35:49;;;;;;;;;;;;;;;-2.49;100.00;100617.20;68027;1275;1016472;-60
2023/02/05 04:38:51;;;;;;;;;;;;;;;-2.48;100.00;100621.67;68021;1275;1016446;-60
2023/02/05 04:41:54;;;;;;;;;;;;;;;-2.47;100.00;100620.33;68054;1275;1016415;-60
2023/02/05 04:44:56;;;;;;;;;;;;;;;-2.47;100.00;100621.20;67982;1275;1016928;-60
2023/02/05 04:47:59;;;;;;;;;;;;;;;-2.46;100.00;100621.56;67987;1275;1016414;-60
2023/02/05 04:51:01;;;;;;;;;;;;;;;-2.38;100.00;100620.70;68028;1275;1016100;-60
2023/02/05 04:54:04;;;;;;;;;;;;;;;-2.39;100.00;100619.30;68059;1275;1019673;-60
2023/02/05 04:57:06;;;;;;;;;;;;;;;-2.46;100.00;100618.47;68021;1275;1016431;-60
2023/02/05 05:00:08;;;;;;;;;;;;;;;-2.50;100.00;100619.41;67977;1275;1016029;-60
2023/02/05 05:03:11;;;;;;;;;;;;;;;-2.56;100.00;100620.30;67962;1275;1018767;-60
2023/02/05 05:06:13;;;;;;;;;;;;;;;-2.54;100.00;100621.90;68003;1275;1016505;-60
2023/02/05 05:09:16;;;;;;;;;;;;;;;-2.51;100.00;100620.41;68024;1275;1016103;-60
2023/02/05 05:12:18;;;;;;;;;;;;;;;-2.60;100.00;100627.95;68061;1275;1016520;-59
2023/02/05 05:15:20;;;;;;;;;;;;;;;-2.68;100.00;100626.91;68020;1275;1016378;-60
2023/02/05 05:18:23;;;;;;;;;;;;;;;-2.72;100.00;100629.56;68023;1275;1016396;-60
2023/02/05 05:21:25;;;;;;;;;;;;;;;-2.67;100.00;100635.14;67960;1275;1016510;-60
2023/02/05 05:24:28;;;;;;;;;;;;;;;-2.67;100.00;100644.93;68048;1275;1016694;-60
2023/02/05 05:27:30;;;;;;;;;;;;;;;-2.77;100.00;100644.52;68040;1275;1016414;-60
2023/02/05 05:30:32;;;;;;;;;;;;;;;-2.83;100.00;100654.32;68028;1275;1016189;-60
2023/02/05 05:33:35;;;;;;;;;;;;;;;-2.87;100.00;100660.22;68006;1275;1016100;-60
2023/02/05 05:36:38;;;;;;;;;;;;;;;-2.99;100.00;100662.86;68027;1275;1017440;-60
2023/02/05 05:46:21;;;;;;;;;;;;;;;-3.16;100.00;100669.81;67985;1275;1016404;-59
2023/02/05 05:49:24;;;;;;;;;;;;;;;-3.18;100.00;100669.58;68037;1275;1016038;-59
2023/02/05 05:52:26;;;;;;;;;;;;;;;-3.22;100.00;100673.63;68067;1275;1016449;-59
2023/02/05 05:55:28;;;;;;;;;;;;;;;-3.23;100.00;100673.40;68033;1275;1016425;-59
2023/02/05 05:58:31;;;;;;;;;;;;;;;-3.25;100.00;100673.36;67922;1275;1016685;-59
2023/02/05 06:01:33;;;;;;;;;;;;;;;-3.26;100.00;100673.48;67993;1275;1016375;-59
2023/02/05 06:04:36;;;;;;;;;;;;;;;-3.25;100.00;100677.11;67938;1275;1017358;-59
2023/02/05 06:07:38;;;;;;;;;;;;;;;-3.30;100.00;100680.93;68075;1275;1016509;-59
2023/02/05 06:10:41;;;;;;;;;;;;;;;-3.27;100.00;100683.41;68045;1275;1019277;-59
2023/02/05 06:13:43;;;;;;;;;;;;;;;-3.26;100.00;100687.19;67992;1275;1016198;-59
2023/02/05 06:16:45;;;;;;;;;;;;;;;-3.27;100.00;100689.23;68025;1275;1016157;-58
2023/02/05 06:19:48;;;;;;;;;;;;;;;-3.21;100.00;100687.14;68022;1275;1016459;-58
2023/02/05 06:22:50;;;;;;;;;;;;;;;-3.12;100.00;100687.88;68022;1275;1016141;-59
2023/02/05 06:25:53;;;;;;;;;;;;;;;-3.18;100.00;100698.02;68056;1275;1016235;-59
2023/02/05 06:28:56;;;;;;;;;;;;;;;-3.22;100.00;100698.77;67984;1275;1018388;-59
2023/02/05 06:31:58;;;;;;;;;;;;;;;-3.20;100.00;100696.59;68073;1275;1016665;-58
2023/02/05 06:35:00;;;;;;;;;;;;;;;-2.59;100.00;100702.98;68038;1275;1016400;-59
2023/02/05 06:38:03;;;;;;;;;;;;;;;-2.49;100.00;100705.27;68010;1275;1016459;-59
2023/02/05 06:41:05;;;;;;;;;;;;;;;-2.51;100.00;100713.63;67981;1275;1016418;-59
2023/02/05 06:44:08;;;;;;;;;;;;;;;-2.40;100.00;100718.48;68013;1275;1016467;-58
2023/02/05 06:47:10;;;;;;;;;;;;;;;-2.22;100.00;100723.48;68031;1275;1016257;-59
2023/02/05 06:50:12;;;;;;;;;;;;;;;-2.20;100.00;100730.56;68049;1275;1016252;-58
2023/02/05 06:53:15;;;;;;;;;;;;;;;-2.15;100.00;100733.08;68034;1275;1016546;-58
2023/02/05 06:56:17;;;;;;;;;;;;;;;-2.07;100.00;100736.34;68011;1275;1016025;-58
2023/02/05 06:59:20;;;;;;;;;;;;;;;-1.97;100.00;100739.27;68016;1275;1016470;-58
2023/02/05 07:02:22;;;;;;;;;;;;;;;-1.91;100.00;100738.20;67997;1275;1016246;-58
2023/02/05 07:05:24;;;;;;;;;;;;;;;-2.08;100.00;100738.52;68064;1275;1016333;-59
2023/02/05 07:08:27;;;;;;;;;;;;;;;-2.19;100.00;100743.80;68062;1275;1016417;-58
2023/02/05 07:11:29;;;;;;;;;;;;;;;-2.16;100.00;100747.79;68025;1275;1016156;-58
2023/02/05 07:14:32;;;;;;;;;;;;;;;-2.17;100.00;100748.98;68016;1275;1016435;-58
2023/02/05 07:17:34;;;;;;;;;;;;;;;-2.22;100.00;100755.89;67953;1275;1016275;-58
2023/02/05 07:20:36;;;;;;;;;;;;;;;-2.22;100.00;100758.46;68020;1275;1016436;-58
2023/02/05 07:23:39;;;;;;;;;;;;;;;-2.18;100.00;100757.54;68051;1275;1016473;-59
2023/02/05 07:26:44;;;;;;;;;;;;;;;-2.11;100.00;100761.10;68049;1275;1016493;-59
2023/02/05 07:29:46;;;;;;;;;;;;;;;-2.04;100.00;100771.88;67989;1275;1016413;-59
2023/02/05 07:32:48;;;;;;;;;;;;;;;-1.98;100.00;100771.67;67978;1275;1016457;-59
2023/02/05 07:35:53;;;;;;;;;;;;;;;-1.95;100.00;100770.86;68069;1275;1016196;-58
2023/02/05 07:38:55;;;;;;;;;;;;;;;-1.93;100.00;100775.55;68033;1275;1016458;-58
2023/02/05 07:41:58;;;;;;;;;;;;;;;-1.85;100.00;100769.71;67968;1275;1016409;-59
2023/02/05 07:45:00;;;;;;;;;;;;;;;-1.85;100.00;100770.90;68005;1275;1017632;-58
2023/02/05 07:48:03;;;;;;;;;;;;;;;-1.95;100.00;100769.83;68072;1275;1016418;-58
2023/02/05 07:51:05;;;;;;;;;;;;;;;-1.96;100.00;100765.36;68046;1275;1016443;-58
2023/02/05 07:54:07;;;;;;;;;;;;;;;-2.02;100.00;100766.44;68008;1275;1016343;-58
2023/02/05 07:57:10;;;;;;;;;;;;;;;-2.06;100.00;100762.22;67967;1275;1016231;-59
2023/02/05 08:00:12;;;;;;;;;;;;;;;-2.13;100.00;100765.34;67980;1275;1016301;-59
2023/02/05 08:03:15;;;;;;;;;;;;;;;-2.03;100.00;100761.95;68025;1275;1016336;-58
2023/02/05 08:06:17;;;;;;;;;;;;;;;-1.97;100.00;100763.45;68065;1275;1016282;-58
2023/02/05 08:09:20;;;;;;;;;;;;;;;-1.80;100.00;100766.21;68013;1275;1017671;-59
2023/02/05 08:12:22;;;;;;;;;;;;;;;-1.68;100.00;100766.10;67998;1275;1016432;-59
2023/02/05 08:15:25;;;;;;;;;;;;;;;-1.56;100.00;100773.73;68006;1275;1018511;-58
2023/02/05 08:18:27;;;;;;;;;;;;;;;-1.50;100.00;100775.38;68056;1275;1016517;-59
2023/02/05 08:21:30;;;;;;;;;;;;;;;-1.57;100.00;100785.73;68036;1275;1016405;-58
2023/02/05 08:24:32;;;;;;;;;;;;;;;-1.63;100.00;100786.95;68033;1275;1016435;-59
2023/02/05 08:27:35;;;;;;;;;;;;;;;-1.68;100.00;100790.47;67984;1275;1016162;-59
2023/02/05 08:30:37;;;;;;;;;;;;;;;-1.65;100.00;100799.45;68007;1275;1016479;-59
2023/02/05 08:33:40;;;;;;;;;;;;;;;-1.72;100.00;100801.52;68074;1275;1016284;-59
2023/02/05 08:36:42;;;;;;;;;;;;;;;-1.76;100.00;100801.63;68003;1275;1016443;-58
2023/02/05 08:39:45;;;;;;;;;;;;;;;-1.75;100.00;100806.10;67965;1275;1016233;-58
2023/02/05 08:42:51;;;;;;;;;;;;;;;-1.70;100.00;100817.86;68049;1275;1016202;-59
2023/02/05 08:45:53;;;;;;;;;;;;;;;-1.73;100.00;100825.70;68085;1275;1016349;-58
2023/02/05 08:48:56;;;;;;;;;;;;;;;-1.69;100.00;100824.24;68068;1275;1016118;-59
2023/02/05 08:51:58;;;;;;;;;;;;;;;-1.66;100.00;100828.59;67986;1275;1016291;-59
2023/02/05 08:55:01;;;;;;;;;;;;;;;-1.72;100.00;100833.45;67919;1275;1016554;-59
2023/02/05 08:58:03;;;;;;;;;;;;;;;-1.72;100.00;100831.91;68024;1275;1016918;-59
2023/02/05 09:01:05;;;;;;;;;;;;;;;-1.73;100.00;100828.10;68063;1275;1016431;-59
2023/02/05 09:04:08;;;;;;;;;;;;;;;-1.80;100.00;100828.48;68070;1275;1017729;-59
2023/02/05 09:07:10;;;;;;;;;;;;;;;-1.87;100.00;100827.45;67982;1275;1016242;-58
2023/02/05 09:10:13;;;;;;;;;;;;;;;-1.86;100.00;100823.71;67988;1275;1016405;-59
2023/02/05 09:13:15;;;;;;;;;;;;;;;-1.71;100.00;100820.92;67967;1275;1016211;-59
2023/02/05 09:16:17;;;;;;;;;;;;;;;-1.63;100.00;100823.50;67978;1275;1016776;-59
2023/02/05 09:19:20;;;;;;;;;;;;;;;-1.58;100.00;100825.33;68021;1275;1018493;-59
2023/02/05 09:22:22;;;;;;;;;;;;;;;-1.52;100.00;100823.21;67999;1275;1016444;-59
2023/02/05 09:25:25;;;;;;;;;;;;;;;-1.40;100.00;100824.47;68033;1275;1016266;-58
2023/02/05 09:28:27;;;;;;;;;;;;;;;-1.19;100.00;100826.09;68002;1275;1016483;-59
2023/02/05 09:31:29;;;;;;;;;;;;;;;-1.16;100.00;100827.35;68034;1275;1016405;-59
2023/02/05 09:34:32;;;;;;;;;;;;;;;-1.04;100.00;100833.76;68040;1275;1016850;-59
2023/02/05 09:37:34;;;;;;;;;;;;;;;-0.89;100.00;100834.02;68014;1275;1017649;-59
2023/02/05 09:40:37;;;;;;;;;;;;;;;-0.72;100.00;100835.00;68033;1275;1017143;-59
2023/02/05 09:43:39;;;;;;;;;;;;;;;-0.58;100.00;100828.53;67995;1275;1016270;-58
2023/02/05 09:46:41;;;;;;;;;;;;;;;-0.63;100.00;100834.48;68008;1275;1016201;-58
2023/02/05 09:49:44;;;;;;;;;;;;;;;-0.53;100.00;100837.89;68035;1275;1016364;-58
2023/02/05 09:52:48;;;;;;;;;;;;;;;-0.40;100.00;100836.73;68049;1275;1016320;-59
2023/02/05 09:55:50;;;;;;;;;;;;;;;-0.16;100.00;100834.00;68022;1275;1016397;-59
2023/02/05 09:58:53;;;;;;;;;;;;;;;0.08;100.00;100825.58;68050;1275;1016477;-58
2023/02/05 10:01:55;;;;;;;;;;;;;;;0.40;100.00;100816.71;67966;1275;1016245;-59
2023/02/05 10:04:58;;;;;;;;;;;;;;;0.42;100.00;100826.18;68012;1275;1016420;-59
2023/02/05 10:08:00;;;;;;;;;;;;;;;0.23;100.00;100827.32;68072;1275;1016390;-58
2023/02/05 10:11:03;;;;;;;;;;;;;;;0.48;100.00;100829.18;68057;1275;1016596;-59
2023/02/05 10:14:05;;;;;;;;;;;;;;;0.77;100.00;100834.36;68013;1275;1016371;-59
2023/02/05 10:17:08;;;;;;;;;;;;;;;0.92;100.00;100835.71;68016;1275;1016506;-59
2023/02/05 10:20:10;;;;;;;;;;;;;;;1.03;100.00;100834.80;68036;1275;1015846;-59
2023/02/05 10:23:13;;;;;;;;;;;;;;;1.18;100.00;100828.55;68050;1275;1016439;-58
2023/02/05 10:26:16;;;;;;;;;;;;;;;1.39;100.00;100822.89;67990;1275;1016355;-58
2023/02/05 10:29:19;;;;;;;;;;;;;;;1.48;100.00;100820.22;68041;1275;1015928;-59
2023/02/05 10:32:22;;;;;;;;;;;;;;;1.63;100.00;100815.33;68023;1275;1017348;-59
2023/02/05 10:35:25;;;;;;;;;;;;;;;1.65;100.00;100814.30;68033;1275;1016427;-59
2023/02/05 10:38:27;;;;;;;;;;;;;;;1.82;100.00;100812.17;68018;1275;1015873;-59
2023/02/05 10:41:30;;;;;;;;;;;;;;;1.90;100.00;100820.34;67994;1275;1017232;-59
2023/02/05 10:44:32;;;;;;;;;;;;;;;1.96;100.00;100824.00;67997;1275;1016323;-59
2023/02/05 10:47:34;;;;;;;;;;;;;;;1.86;100.00;100831.52;68030;1275;1016371;-59
2023/02/05 10:50:37;;;;;;;;;;;;;;;1.81;100.00;100825.64;68031;1275;1016466;-59
2023/02/05 10:53:40;;;;;;;;;;;;;;;1.72;100.00;100827.12;67994;1275;1016097;-59
2023/02/05 10:56:42;;;;;;;;;;;;;;;1.70;100.00;100826.93;68009;1275;1016407;-59
2023/02/05 10:59:46;;;;;;;;;;;;;;;1.69;100.00;100825.03;68052;1275;1016011;-59
2023/02/05 11:02:48;;;;;;;;;;;;;;;1.73;100.00;100823.34;68063;1275;1016421;-59
2023/02/05 11:05:51;;;;;;;;;;;;;;;1.52;100.00;100822.48;68077;1275;1016513;-59
2023/02/05 11:08:54;;;;;;;;;;;;;;;1.32;100.00;100814.57;67987;1275;1017997;-59
2023/02/05 11:11:56;;;;;;;;;;;;;;;1.25;100.00;100811.05;68010;1275;1016895;-59
2023/02/05 11:14:59;;;;;;;;;;;;;;;1.18;100.00;100809.62;68043;1275;1018481;-59
2023/02/05 11:18:01;;;;;;;;;;;;;;;1.08;100.00;100812.80;68033;1275;1018490;-59
2023/02/05 11:21:04;;;;;;;;;;;;;;;1.11;100.00;100807.98;67979;1275;1016521;-58
2023/02/05 11:24:06;;;;;;;;;;;;;;;0.99;100.00;100801.86;68055;1275;1016444;-59
2023/02/05 11:27:09;;;;;;;;;;;;;;;0.89;100.00;100802.95;68019;1275;1016063;-59
2023/02/05 11:30:11;;;;;;;;;;;;;;;0.74;100.00;100798.67;68039;1275;1016490;-58
2023/02/05 11:33:14;;;;;;;;;;;;;;;0.53;100.00;100797.91;68000;1275;1016536;-59
2023/02/05 11:36:16;;;;;;;;;;;;;;;0.52;100.00;100793.43;68009;1275;1016471;-59
2023/02/05 11:39:19;;;;;;;;;;;;;;;0.67;100.00;100789.81;68036;1275;1015817;-59
2023/02/05 11:42:21;;;;;;;;;;;;;;;0.87;100.00;100787.45;68075;1275;1016365;-59
2023/02/05 11:45:25;;;;;;;;;;;;;;;1.01;100.00;100783.95;68025;1275;1016512;-59
2023/02/05 11:48:28;;;;;;;;;;;;;;;1.25;100.00;100785.89;68008;1275;1016410;-59
2023/02/05 11:51:30;;;;;;;;;;;;;;;1.26;100.00;100793.30;67993;1275;1016481;-60
2023/02/05 11:54:33;;;;;;;;;;;;;;;1.10;100.00;100790.07;68048;1275;1016410;-59
2023/02/05 11:57:37;;;;;;;;;;;;;;;1.01;100.00;100795.14;68042;1275;1016350;-59
2023/02/05 12:00:39;;;;;;;;;;;;;;;0.99;100.00;100794.96;68015;1275;1016513;-59
2023/02/05 12:03:42;;;;;;;;;;;;;;;1.01;100.00;100781.02;68013;1275;1016475;-59
2023/02/05 12:06:44;;;;;;;;;;;;;;;1.10;100.00;100777.66;68003;1275;1016387;-59
2023/02/05 12:09:47;;;;;;;;;;;;;;;1.17;100.00;100775.83;67997;1275;1017138;-59
2023/02/05 12:12:50;;;;;;;;;;;;;;;1.18;100.00;100768.42;65912;1275;5387339;-59
2023/02/05 12:15:53;;;;;;;;;;;;;;;1.57;100.00;100770.27;67995;1275;1016293;-59
2023/02/05 12:18:56;;;;;;;;;;;;;;;1.86;100.00;100773.21;68061;1275;1015926;-59
2023/02/05 12:21:59;;;;;;;;;;;;;;;1.99;100.00;100776.91;68065;1275;1016196;-59
2023/02/05 12:25:02;;;;;;;;;;;;;;;2.09;100.00;100770.06;67977;1275;1016204;-59
2023/02/05 12:28:04;;;;;;;;;;;;;;;2.43;100.00;100774.34;68056;1275;1016282;-59
2023/02/05 12:31:07;;;;;;;;;;;;;;;2.64;100.00;100778.73;68040;1275;1016525;-59
2023/02/05 12:34:10;;;;;;;;;;;;;;;2.57;100.00;100772.14;68058;1275;1018018;-59
2023/02/05 12:37:12;;;;;;;;;;;;;;;2.63;100.00;100774.74;67984;1275;1016416;-59
2023/02/05 12:40:14;;;;;;;;;;;;;;;2.54;100.00;100774.03;68012;1275;1016491;-59
2023/02/05 12:43:17;;;;;;;;;;;;;;;2.45;100.00;100775.05;67955;1275;1016536;-59
2023/02/05 12:46:19;;;;;;;;;;;;;;;2.37;100.00;100779.33;68009;1275;1016639;-59
2023/02/05 12:49:22;;;;;;;;;;;;;;;2.25;100.00;100775.65;68035;1275;1016761;-59
2023/02/05 12:52:24;;;;;;;;;;;;;;;2.12;100.00;100778.36;68073;1275;1016336;-59
2023/02/05 12:55:27;;;;;;;;;;;;;;;2.04;100.00;100770.91;68044;1275;1016625;-58
2023/02/05 12:58:29;;;;;;;;;;;;;;;1.94;100.00;100773.09;67989;1275;1016520;-59
2023/02/05 13:01:34;;;;;;;;;;;;;;;1.87;100.00;100771.49;68054;1275;1016395;-59
2023/02/05 13:04:37;;;;;;;;;;;;;;;1.83;100.00;100770.95;68053;1275;1016381;-59
2023/02/05 13:07:39;;;;;;;;;;;;;;;1.77;100.00;100767.98;68000;1275;1016142;-59
2023/02/05 13:10:41;;;;;;;;;;;;;;;1.80;100.00;100765.41;68024;1275;1016477;-59
2023/02/05 13:13:44;;;;;;;;;;;;;;;2.29;100.00;100760.65;68054;1275;1015954;-59
2023/02/05 13:16:46;;;;;;;;;;;;;;;2.39;100.00;100770.02;68053;1275;1016344;-59
2023/02/05 13:19:49;;;;;;;;;;;;;;;2.44;100.00;100767.09;68014;1275;1017578;-59
2023/02/05 13:29:32;;;;;;;;;;;;;;;2.77;100.00;100753.52;67998;1275;1016678;-61
2023/02/05 13:32:34;;;;;;;;;;;;;;;2.53;100.00;100759.70;68034;1275;1016394;-61
2023/02/05 13:35:38;;;;;;;;;;;;;;;2.17;100.00;100757.84;68069;1275;1016101;-60
2023/02/05 13:38:41;;;;;;;;;;;;;;;1.83;100.00;100762.66;68031;1275;1015983;-60
2023/02/05 13:41:44;;;;;;;;;;;;;;;1.56;100.00;100763.89;67988;1275;1015690;-60
2023/02/05 13:44:47;;;;;;;;;;;;;;;1.37;100.00;100761.17;68034;1275;1016184;-60
2023/02/05 13:47:49;;;;;;;;;;;;;;;1.14;100.00;100768.39;68044;1275;1016460;-60
2023/02/05 13:50:51;;;;;;;;;;;;;;;0.92;100.00;100769.56;68026;1275;1016412;-60
2023/02/05 13:53:54;;;;;;;;;;;;;;;0.78;100.00;100770.64;68029;1275;1017620;-60
2023/02/05 13:56:56;;;;;;;;;;;;;;;0.76;100.00;100770.45;68013;1275;1016240;-60
2023/02/05 13:59:59;;;;;;;;;;;;;;;0.66;100.00;100780.15;68027;1275;1018275;-60
2023/02/05 14:03:04;;;;;;;;;;;;;;;0.53;100.00;100778.64;68047;1275;1016374;-60
2023/02/05 14:06:06;;;;;;;;;;;;;;;0.49;100.00;100778.25;68041;1275;1016972;-60
2023/02/05 14:09:09;;;;;;;;;;;;;;;0.41;100.00;100774.36;68051;1275;1016547;-60
2023/02/05 14:12:11;;;;;;;;;;;;;;;0.39;100.00;100772.11;68021;1275;1016088;-60
2023/02/05 14:15:14;;;;;;;;;;;;;;;0.35;100.00;100775.67;67975;1275;1016404;-60
2023/02/05 14:18:16;;;;;;;;;;;;;;;0.30;100.00;100773.38;68010;1275;1016426;-60
2023/02/05 14:21:18;;;;;;;;;;;;;;;0.23;100.00;100778.80;68048;1274;1018209;-60
2023/02/05 14:24:21;;;;;;;;;;;;;;;0.16;100.00;100778.90;68032;1275;1016323;-61
2023/02/05 14:27:23;;;;;;;;;;;;;;;0.16;100.00;100782.84;68037;1275;1016236;-60
2023/02/05 14:30:26;;;;;;;;;;;;;;;0.13;100.00;100785.58;67987;1275;1016430;-61
2023/02/05 14:33:28;;;;;;;;;;;;;;;0.14;100.00;100785.73;67962;1275;1016432;-60
2023/02/05 14:36:31;;;;;;;;;;;;;;;0.15;100.00;100789.37;67973;1275;1016350;-60
2023/02/05 14:39:34;;;;;;;;;;;;;;;0.14;100.00;100792.28;67981;1275;1016444;-60
2023/02/05 14:42:36;;;;;;;;;;;;;;;0.09;100.00;100792.22;67982;1275;1016222;-60
2023/02/05 14:45:41;;;;;;;;;;;;;;;0.07;100.00;100792.36;67978;1275;1016259;-60
2023/02/05 14:48:44;;;;;;;;;;;;;;;0.09;100.00;100796.34;68040;1275;1016434;-60
2023/02/05 14:51:46;;;;;;;;;;;;;;;0.06;100.00;100796.11;68011;1275;1016485;-61
2023/02/05 14:54:49;;;;;;;;;;;;;;;0.07;100.00;100791.83;67993;1275;1016271;-60
2023/02/05 14:57:51;;;;;;;;;;;;;;;0.07;100.00;100792.36;67984;1275;1016336;-60
2023/02/05 15:00:53;;;;;;;;;;;;;;;0.03;100.00;100794.71;68079;1275;1016523;-60
2023/02/05 15:03:56;;;;;;;;;;;;;;;-0.06;100.00;100791.67;68052;1275;1016256;-60
2023/02/05 15:06:58;;;;;;;;;;;;;;;-0.15;100.00;100794.98;68018;1275;1016308;-60
2023/02/05 15:10:01;;;;;;;;;;;;;;;-0.28;100.00;100796.86;68015;1275;1016420;-61
2023/02/05 15:13:03;;;;;;;;;;;;;;;-0.28;100.00;100794.80;67999;1275;1016230;-60
2023/02/05 15:16:05;;;;;;;;;;;;;;;-0.24;100.00;100796.06;68025;1275;1016151;-60
2023/02/05 15:19:08;;;;;;;;;;;;;;;-0.25;100.00;100796.39;68033;1275;1016428;-60